Time;durP1;ratioP1;P1;durP2;ratioP2;P2;SDS_P1;SDS_P2;PMS_P1;PMS_P2;Temp;Humidity;BMP_temperature;BMP_pressure;BME280_temperature;BME280_humidity;BME280_pressure;Samples;Min_cycle;Max_cycle;Signal;HPM_P1;HPM_P2
2022/04/27 00:00:13;;;;;;;15.15;10.13;;;;;;;1.87;94.02;102313.00;2071902;28;46204;-65
2022/04/27 00:01:15;;;;;;;20.27;12.13;;;;;;;1.96;94.51;102314.19;2063150;28;44649;-64
2022/04/27 00:02:17;;;;;;;19.20;10.43;;;;;;;1.93;94.00;102317.59;2055418;28;43073;-65
2022/04/27 00:03:18;;;;;;;17.33;11.95;;;;;;;1.94;93.54;102318.47;2064225;28;34648;-65
2022/04/27 00:04:20;;;;;;;19.40;11.07;;;;;;;1.91;93.73;102316.63;2071469;28;45354;-65
2022/04/27 00:05:23;;;;;;;14.82;10.05;;;;;;;1.89;93.75;102311.31;2071858;28;46790;-65
2022/04/27 00:06:25;;;;;;;17.45;11.00;;;;;;;1.86;93.85;102313.81;2072368;28;38730;-65
2022/04/27 00:07:27;;;;;;;19.25;11.25;;;;;;;1.89;93.24;102313.94;2071804;28;44428;-65
2022/04/27 00:08:29;;;;;;;17.13;11.50;;;;;;;1.89;94.32;102320.97;2071963;28;44605;-65
2022/04/27 00:09:31;;;;;;;14.98;9.77;;;;;;;1.86;93.83;102308.53;2063623;28;20836;-65
2022/04/27 00:10:32;;;;;;;22.15;12.00;;;;;;;1.85;94.10;102316.44;2063319;28;43867;-66
2022/04/27 00:11:34;;;;;;;14.50;10.15;;;;;;;1.81;94.36;102319.78;2071852;28;43289;-65
2022/04/27 00:12:37;;;;;;;18.38;10.75;;;;;;;1.79;93.86;102317.09;2072438;28;30763;-65
2022/04/27 00:13:39;;;;;;;18.45;9.80;;;;;;;1.78;93.91;102322.34;2063191;28;44320;-66
2022/04/27 00:14:41;;;;;;;17.52;10.63;;;;;;;1.75;93.88;102316.94;2055336;28;42908;-65
2022/04/27 00:15:42;;;;;;;15.48;8.88;;;;;;;1.69;94.19;102317.63;2064145;28;20047;-65
2022/04/27 00:16:44;;;;;;;12.98;9.43;;;;;;;1.65;93.54;102313.06;2071732;28;44504;-64
2022/04/27 00:17:46;;;;;;;20.15;11.27;;;;;;;1.59;93.39;102316.38;2062800;28;45803;-65
2022/04/27 00:18:49;;;;;;;17.08;10.98;;;;;;;1.60;93.50;102317.28;2065037;28;20828;-65
2022/04/27 00:19:51;;;;;;;15.98;10.60;;;;;;;1.58;94.06;102313.69;2072340;28;44469;-62
2022/04/27 00:20:53;;;;;;;16.52;10.30;;;;;;;1.56;94.96;102304.81;2063160;28;45364;-65
2022/04/27 00:21:55;;;;;;;17.67;10.15;;;;;;;1.55;94.90;102313.59;2063492;28;43668;-64
2022/04/27 00:22:56;;;;;;;18.67;11.35;;;;;;;1.58;94.65;102314.63;2071929;28;20026;-65
2022/04/27 00:23:58;;;;;;;17.90;11.75;;;;;;;1.59;94.91;102312.84;2071428;28;44483;-65
2022/04/27 00:25:04;;;;;;;19.40;12.55;;;;;;;1.57;95.30;102317.19;2071391;28;44350;-65
2022/04/27 00:26:06;;;;;;;21.52;11.73;;;;;;;1.59;94.65;102315.50;2070992;28;37778;-65
2022/04/27 00:27:08;;;;;;;16.90;10.07;;;;;;;1.55;94.93;102325.06;2072097;28;45547;-65
2022/04/27 00:28:10;;;;;;;20.08;13.45;;;;;;;1.59;95.35;102326.06;2071957;28;20289;-65
2022/04/27 00:29:12;;;;;;;18.63;12.70;;;;;;;1.69;96.00;102313.25;2071842;28;20106;-65
2022/04/27 00:30:14;;;;;;;19.63;13.05;;;;;;;1.66;95.21;102312.25;2071412;28;43162;-66
2022/04/27 00:31:15;;;;;;;21.60;11.98;;;;;;;1.63;95.34;102320.03;2071416;28;44019;-65
2022/04/27 00:32:17;;;;;;;18.40;11.75;;;;;;;1.64;95.14;102314.81;2071944;28;31190;-65
2022/04/27 00:33:19;;;;;;;25.20;14.02;;;;;;;1.85;95.74;102308.53;2072012;28;45365;-65
2022/04/27 00:34:20;;;;;;;25.48;12.40;;;;;;;1.74;96.30;102313.38;2073173;28;20043;-65
2022/04/27 00:35:22;;;;;;;21.88;11.93;;;;;;;1.67;95.37;102312.28;2072558;28;20042;-65
2022/04/27 00:36:24;;;;;;;18.88;11.85;;;;;;;1.63;95.82;102307.72;2071902;28;43838;-65
2022/04/27 00:37:28;;;;;;;17.58;11.57;;;;;;;1.60;95.51;102323.47;2071975;28;44884;-64
2022/04/27 00:38:30;;;;;;;18.65;11.77;;;;;;;1.63;95.67;102318.28;2072972;28;20042;-65
2022/04/27 00:39:32;;;;;;;19.38;12.38;;;;;;;1.59;95.28;102316.38;2072657;28;21113;-65
2022/04/27 00:40:33;;;;;;;20.42;12.23;;;;;;;1.60;95.15;102319.91;2072130;28;44138;-65
2022/04/27 00:41:35;;;;;;;16.85;11.13;;;;;;;1.58;95.37;102313.69;2071551;28;45327;-65
2022/04/27 00:42:37;;;;;;;20.17;11.90;;;;;;;1.54;94.88;102315.31;2072053;28;20851;-65
2022/04/27 00:43:42;;;;;;;19.20;11.27;;;;;;;1.52;95.17;102317.00;2072135;28;20038;-65
2022/04/27 00:44:45;;;;;;;19.70;11.68;;;;;;;1.50;94.51;102316.06;2072200;28;20069;-64
2022/04/27 00:45:47;;;;;;;16.60;11.15;;;;;;;1.48;95.19;102320.38;2071619;28;46330;-65
2022/04/27 00:47:04;;;;;;;18.90;12.13;;;;;;;1.46;94.91;102320.34;2072141;28;20205;-65
2022/04/27 00:48:27;;;;;;;16.55;10.35;;;;;;;1.41;95.70;102316.63;2071324;28;20085;-65
2022/04/27 00:49:30;;;;;;;15.77;9.98;;;;;;;1.38;94.33;102313.84;2071307;28;43548;-65
2022/04/27 00:50:32;;;;;;;17.70;10.07;;;;;;;1.32;95.04;102321.56;2071131;28;45552;-65
2022/04/27 00:51:34;;;;;;;16.45;10.25;;;;;;;1.29;94.46;102316.16;2071280;28;46176;-65
2022/04/27 00:52:37;;;;;;;18.33;10.82;;;;;;;1.23;94.31;102315.94;2071974;28;20037;-65
2022/04/27 00:53:40;;;;;;;15.63;11.68;;;;;;;1.20;95.17;102316.72;2063291;28;45712;-65
2022/04/27 00:54:46;;;;;;;22.05;11.68;;;;;;;1.17;94.44;102321.88;2064404;28;20986;-65
2022/04/27 00:55:48;;;;;;;21.17;12.77;;;;;;;1.17;95.40;102323.59;2069996;28;45583;-65
2022/04/27 00:56:50;;;;;;;22.05;13.50;;;;;;;1.12;95.42;102316.44;2063946;28;20047;-65
2022/04/27 00:57:52;;;;;;;20.48;11.88;;;;;;;1.11;95.16;102317.28;2071651;28;20039;-65
2022/04/27 00:58:56;;;;;;;16.02;10.98;;;;;;;1.11;95.88;102319.94;2072195;28;20156;-65
2022/04/27 00:59:58;;;;;;;19.58;11.57;;;;;;;1.06;94.80;102318.84;2062630;28;44421;-65
2022/04/27 01:00:59;;;;;;;18.88;11.73;;;;;;;1.04;95.32;102312.63;2062958;28;44422;-65
2022/04/27 01:02:04;;;;;;;16.02;10.55;;;;;;;1.02;95.11;102322.19;2071038;28;46219;-65
2022/04/27 01:03:06;;;;;;;20.40;11.48;;;;;;;0.97;95.82;102323.78;2063422;28;22966;-65
2022/04/27 01:04:11;;;;;;;25.80;12.82;;;;;;;1.01;95.94;102322.16;2064425;28;46780;-65
2022/04/27 01:05:13;;;;;;;25.55;13.57;;;;;;;0.98;95.51;102322.03;2071871;28;20526;-64
2022/04/27 01:06:15;;;;;;;21.52;12.18;;;;;;;0.99;96.21;102313.25;2071305;28;28684;-65
2022/04/27 01:07:19;;;;;;;21.95;14.05;;;;;;;0.97;95.91;102323.78;2062212;28;41515;-65
2022/04/27 01:08:21;;;;;;;22.05;13.57;;;;;;;0.97;95.86;102315.84;2063578;28;20100;-65
2022/04/27 01:09:25;;;;;;;23.58;12.85;;;;;;;0.97;95.49;102318.50;2071400;28;20803;-65
2022/04/27 01:10:27;;;;;;;18.17;11.88;;;;;;;0.98;95.89;102329.94;2062899;28;38863;-65
2022/04/27 01:11:32;;;;;;;22.90;13.93;;;;;;;0.96;96.54;102327.22;2063546;28;20153;-65
2022/04/27 01:12:36;;;;;;;19.55;11.48;;;;;;;0.95;96.20;102321.06;2071724;28;20916;-63
2022/04/27 01:13:42;;;;;;;21.08;13.07;;;;;;;0.94;95.54;102328.91;2070831;28;20193;-65
2022/04/27 01:14:48;;;;;;;17.73;11.65;;;;;;;0.92;95.77;102325.31;2063805;28;20034;-63
2022/04/27 01:15:50;;;;;;;18.25;12.13;;;;;;;0.92;96.24;102330.59;2071619;28;20073;-65
2022/04/27 01:16:57;;;;;;;22.40;12.82;;;;;;;0.89;95.66;102331.34;2071780;28;34441;-65
2022/04/27 01:18:03;;;;;;;17.92;12.27;;;;;;;0.89;95.82;102319.91;2072505;28;20042;-65
2022/04/27 01:19:07;;;;;;;22.17;13.77;;;;;;;0.88;96.20;102328.66;2063234;28;20067;-65
2022/04/27 01:20:10;;;;;;;18.67;11.43;;;;;;;0.89;96.13;102327.84;2063713;28;20039;-65
2022/04/27 01:21:12;;;;;;;18.15;12.20;;;;;;;0.88;96.03;102328.66;2063938;28;20050;-65
2022/04/27 01:22:21;;;;;;;25.02;14.25;;;;;;;0.86;96.43;102335.63;2055649;28;20031;-65
2022/04/27 01:23:25;;;;;;;29.67;13.80;;;;;;;0.85;96.29;102326.81;2049038;28;20126;-64
2022/04/27 01:24:29;;;;;;;18.95;12.70;;;;;;;0.84;95.96;102327.63;2055933;28;20050;-66
2022/04/27 01:25:54;;;;;;;26.77;15.25;;;;;;;0.84;96.32;102332.03;2071127;28;45545;-66
2022/04/27 01:26:56;;;;;;;28.20;14.38;;;;;;;0.82;95.97;102328.44;2071478;28;24079;-65
2022/04/27 01:27:58;;;;;;;21.23;12.73;;;;;;;0.81;96.29;102326.63;2071309;28;44283;-65
2022/04/27 01:28:59;;;;;;;21.50;13.60;;;;;;;0.80;96.65;102332.75;2063186;28;33435;-65
2022/04/27 01:30:02;;;;;;;21.85;12.65;;;;;;;0.78;96.05;102335.31;2063790;28;20915;-65
2022/04/27 01:31:07;;;;;;;25.73;13.90;;;;;;;0.73;96.10;102327.22;2063492;28;20059;-65
2022/04/27 01:32:10;;;;;;;25.48;14.80;;;;;;;0.73;96.21;102334.22;2063477;28;20042;-65
2022/04/27 01:33:12;;;;;;;20.45;12.82;;;;;;;0.72;96.03;102335.09;2064010;28;20042;-65
2022/04/27 01:34:14;;;;;;;21.95;14.18;;;;;;;0.70;96.35;102335.03;2071100;28;20157;-65
2022/04/27 01:35:16;;;;;;;21.48;13.27;;;;;;;0.69;96.01;102332.31;2071723;28;20141;-65
2022/04/27 01:36:17;;;;;;;21.75;13.15;;;;;;;0.68;96.29;102334.06;2070558;28;44269;-65
2022/04/27 01:38:43;;;;;;;16.92;11.10;;;;;;;0.66;96.07;102333.06;2072600;28;20133;-65
2022/04/27 01:39:44;;;;;;;18.63;12.85;;;;;;;0.64;97.00;102329.50;2071422;28;24388;-66
2022/04/27 01:40:51;;;;;;;20.30;13.55;;;;;;;0.61;96.57;102339.00;2062661;28;44533;-65
2022/04/27 01:41:53;;;;;;;19.17;11.88;;;;;;;0.61;96.63;102334.66;2055892;28;20443;-65
2022/04/27 01:42:57;;;;;;;20.25;12.23;;;;;;;0.62;96.06;102336.44;2063735;28;46266;-66
2022/04/27 01:43:59;;;;;;;21.88;13.25;;;;;;;0.56;97.00;102334.47;2062756;28;45197;-65
2022/04/27 01:45:02;;;;;;;24.90;15.23;;;;;;;0.55;95.88;102339.66;2063152;28;37057;-65
2022/04/27 01:46:07;;;;;;;19.73;11.52;;;;;;;0.55;96.78;102340.56;2071426;28;20093;-65
2022/04/27 01:47:12;;;;;;;22.90;12.80;;;;;;;0.55;96.58;102342.28;2072196;28;20031;-66
2022/04/27 01:48:16;;;;;;;20.02;12.93;;;;;;;0.56;96.13;102337.09;2061849;28;46604;-66
2022/04/27 01:49:17;;;;;;;21.23;12.10;;;;;;;0.55;96.78;102335.28;2062669;28;28298;-65
2022/04/27 01:50:20;;;;;;;22.55;13.52;;;;;;;0.54;96.57;102338.78;2063448;28;43496;-65
2022/04/27 01:54:18;;;;;;;;;;;;;;;0.54;97.10;102348.44;2069264;28;21388;-65
2022/04/27 01:55:22;;;;;;;23.95;12.93;;;;;;;0.53;97.17;102339.59;2071348;28;19922;-65
2022/04/27 01:56:24;;;;;;;22.58;12.77;;;;;;;0.54;96.32;102348.44;2071853;28;20884;-65
2022/04/27 01:57:28;;;;;;;20.80;11.98;;;;;;;0.53;96.97;102352.78;2064041;28;20049;-66
2022/04/27 01:58:30;;;;;;;24.15;13.77;;;;;;;0.53;96.92;102352.78;2064388;28;20148;-65
2022/04/27 01:59:34;;;;;;;23.20;14.55;;;;;;;0.51;96.70;102351.81;2072818;28;20047;-65
2022/04/27 02:00:39;;;;;;;23.65;13.85;;;;;;;0.52;97.33;102355.34;2073135;28;20089;-65
2022/04/27 02:01:41;;;;;;;20.35;12.95;;;;;;;0.52;96.53;102357.97;2073331;28;20896;-65
2022/04/27 02:02:43;;;;;;;22.58;13.68;;;;;;;0.52;96.77;102357.97;2065988;28;20662;-66
2022/04/27 02:03:47;;;;;;;26.30;14.90;;;;;;;0.52;97.10;102360.59;2068913;28;40811;-66
2022/04/27 02:04:50;;;;;;;24.90;14.02;;;;;;;0.51;96.71;102364.09;2071084;28;20035;-65
2022/04/27 02:05:54;;;;;;;26.27;15.60;;;;;;;0.51;96.82;102350.94;2071066;28;20169;-66
2022/04/27 02:06:58;;;;;;;29.70;15.88;;;;;;;0.49;96.69;102361.41;2070278;28;20038;-66
2022/04/27 02:08:00;;;;;;;31.00;15.07;;;;;;;0.48;97.48;102353.44;2071216;28;20043;-67
2022/04/27 02:09:05;;;;;;;21.52;13.82;;;;;;;0.53;97.47;102359.78;2078702;28;20185;-66
2022/04/27 02:10:15;;;;;;;29.42;15.75;;;;;;;0.49;97.29;102356.13;2076801;28;20194;-66
2022/04/27 02:11:24;;;;;;;22.52;14.02;;;;;;;0.45;96.96;102356.84;2063718;28;20439;-66
2022/04/27 02:12:35;;;;;;;21.15;13.02;;;;;;;0.44;96.88;102355.03;2064949;28;20079;-65
2022/04/27 02:13:48;;;;;;;21.40;13.88;;;;;;;0.38;96.91;102362.69;2074623;28;20047;-65
2022/04/27 02:14:50;;;;;;;22.77;13.60;;;;;;;0.35;96.35;102355.53;2071402;28;20031;-66
2022/04/27 02:15:53;;;;;;;24.10;14.63;;;;;;;0.33;97.15;102354.59;2071206;28;20043;-64
2022/04/27 02:17:02;;;;;;;;;;;;;;;0.32;96.48;102354.50;2079581;28;20046;-66
2022/04/27 02:18:04;;;;;;;21.50;12.30;;;;;;;0.31;97.18;102358.00;2079434;28;20111;-65
2022/04/27 02:19:08;;;;;;;21.15;12.93;;;;;;;0.28;97.34;102356.13;2077867;28;45479;-65
2022/04/27 02:20:10;;;;;;;20.10;12.13;;;;;;;0.29;96.99;102357.94;2070562;28;20837;-65
2022/04/27 02:21:12;;;;;;;20.67;12.98;;;;;;;0.25;96.69;102361.28;2069257;28;20035;-66
2022/04/27 02:22:14;;;;;;;24.92;14.93;;;;;;;0.21;97.44;102364.59;2062849;28;45192;-65
2022/04/27 02:23:20;;;;;;;20.33;13.45;;;;;;;0.18;96.36;102364.50;2063939;28;20097;-66
2022/04/27 02:24:23;;;;;;;24.33;14.30;;;;;;;0.18;97.27;102359.22;2063206;28;20043;-66
2022/04/27 02:25:24;;;;;;;24.92;15.10;;;;;;;0.16;97.09;102360.88;2062615;28;41673;-66
2022/04/27 02:26:26;;;;;;;25.30;14.82;;;;;;;0.14;96.33;102363.47;2071264;28;20054;-66
2022/04/27 02:27:31;;;;;;;25.10;14.18;;;;;;;0.13;97.02;102364.28;2071178;28;20950;-66
2022/04/27 02:28:32;;;;;;;24.65;14.70;;;;;;;0.12;97.03;102361.59;2070777;28;34794;-66
2022/04/27 02:29:34;;;;;;;20.60;14.00;;;;;;;0.10;96.49;102365.88;2071321;28;20273;-66
2022/04/27 02:30:47;;;;;;;22.20;12.73;;;;;;;0.08;96.98;102364.94;2070870;28;20057;-66
2022/04/27 02:31:50;;;;;;;23.73;13.35;;;;;;;0.05;96.62;102370.06;2070779;28;41691;-66
2022/04/27 02:32:52;;;;;;;26.52;14.73;;;;;;;0.04;96.96;102370.91;2070150;28;47243;-64
2022/04/27 02:33:54;;;;;;;27.10;15.23;;;;;;;0.01;97.62;102369.03;2063200;28;20639;-66
2022/04/27 02:34:56;;;;;;;20.98;12.88;;;;;;;0.06;97.98;102369.22;2055242;28;22044;-66
2022/04/27 02:36:00;;;;;;;19.80;13.10;;;;;;;0.06;97.44;102367.50;2063676;28;20055;-65
2022/04/27 02:37:03;;;;;;;20.48;13.52;;;;;;;0.03;96.90;102367.34;2072097;28;20045;-66
2022/04/27 02:38:06;;;;;;;21.02;12.98;;;;;;;-0.01;97.12;102365.44;2071037;28;20097;-66
2022/04/27 02:39:10;;;;;;;20.88;12.75;;;;;;;-0.03;96.65;102370.63;2070805;28;20835;-66
2022/04/27 02:40:12;;;;;;;24.65;14.77;;;;;;;-0.06;97.31;102370.47;2062815;28;20099;-66
2022/04/27 02:41:14;;;;;;;29.25;15.27;;;;;;;-0.05;96.87;102366.13;2054873;28;20054;-66
2022/04/27 02:42:17;;;;;;;29.23;16.25;;;;;;;-0.05;96.85;102367.03;2063121;28;20071;-66
2022/04/27 02:43:19;;;;;;;27.08;14.73;;;;;;;-0.04;97.49;102373.19;2063083;28;20157;-66
2022/04/27 02:44:21;;;;;;;34.85;16.40;;;;;;;-0.05;97.76;102367.03;2063056;28;20173;-65
2022/04/27 02:45:23;;;;;;;21.23;15.38;;;;;;;-0.04;97.53;102374.06;2063414;28;20039;-65
2022/04/27 02:46:25;;;;;;;30.17;17.02;;;;;;;-0.05;98.10;102374.94;2063357;28;20035;-66
2022/04/27 02:47:27;;;;;;;27.17;16.45;;;;;;;-0.06;97.47;102373.09;2071054;28;20050;-66
2022/04/27 02:48:30;;;;;;;33.05;16.40;;;;;;;-0.06;97.47;102375.75;2063131;28;20050;-65
2022/04/27 02:52:16;;;;;;;24.10;13.48;;;;;;;-0.05;97.19;102372.28;2070948;28;20077;-66
2022/04/27 02:53:40;;;;;;;29.73;15.07;;;;;;;-0.09;97.33;102388.78;2070900;28;20459;-66
2022/04/27 02:54:42;;;;;;;28.65;14.65;;;;;;;-0.13;97.48;102376.31;2062561;28;20903;-65
2022/04/27 02:55:44;;;;;;;30.35;16.02;;;;;;;-0.13;97.66;102373.69;2062747;28;20844;-66
2022/04/27 02:56:49;;;;;;;30.15;16.30;;;;;;;-0.11;97.49;102386.91;2062943;28;20039;-66
2022/04/27 02:57:51;;;;;;;22.48;13.95;;;;;;;-0.12;97.38;102386.03;2071083;28;20081;-66
2022/04/27 02:58:53;;;;;;;32.38;16.65;;;;;;;-0.14;97.45;102376.22;2071076;28;20038;-66
2022/04/27 02:59:55;;;;;;;26.55;14.63;;;;;;;-0.15;97.44;102380.59;2070574;28;42419;-66
2022/04/27 03:00:56;;;;;;;23.05;14.20;;;;;;;-0.17;97.24;102390.19;2070711;28;30455;-66
2022/04/27 03:01:58;;;;;;;24.50;13.75;;;;;;;-0.20;97.71;102380.41;2070568;28;27010;-66
2022/04/27 03:03:00;;;;;;;20.45;12.45;;;;;;;-0.21;97.24;102382.97;2062315;28;41152;-66
2022/04/27 03:04:02;;;;;;;26.42;14.95;;;;;;;-0.25;97.72;102388.91;2062954;28;20042;-66
2022/04/27 03:05:04;;;;;;;24.35;14.13;;;;;;;-0.27;97.84;102387.94;2063302;28;20043;-66
2022/04/27 03:06:06;;;;;;;28.80;15.98;;;;;;;-0.31;97.58;102388.66;2070840;28;20120;-65
2022/04/27 03:07:08;;;;;;;26.42;15.05;;;;;;;-0.32;97.80;102385.13;2062774;28;20871;-66
2022/04/27 03:08:19;;;;;;;27.20;16.35;;;;;;;-0.34;97.58;102388.50;2064252;28;20051;-66
2022/04/27 03:09:27;;;;;;;27.73;16.73;;;;;;;-0.35;97.97;102392.00;2071195;28;20038;-66
2022/04/27 03:10:29;;;;;;;26.20;14.93;;;;;;;-0.33;97.37;102398.22;2070286;28;45285;-65
2022/04/27 03:11:30;;;;;;;24.70;14.15;;;;;;;-0.32;97.00;102386.84;2070677;28;33965;-65
2022/04/27 03:13:07;;;;;;;26.27;14.82;;;;;;;-0.39;97.24;102386.59;2067727;28;20051;-65
2022/04/27 03:14:09;;;;;;;30.85;15.93;;;;;;;-0.37;97.73;102391.03;2062552;28;22185;-65
2022/04/27 03:15:11;;;;;;;26.95;14.77;;;;;;;-0.33;97.33;102390.31;2062853;28;20076;-65
2022/04/27 03:16:13;;;;;;;26.48;15.07;;;;;;;-0.32;97.42;102387.78;2071158;28;20046;-65
2022/04/27 03:17:18;;;;;;;26.08;15.02;;;;;;;-0.33;97.97;102391.22;2070606;28;20054;-65
2022/04/27 03:18:20;;;;;;;23.52;15.45;;;;;;;-0.33;97.39;102388.59;2062118;28;43307;-65
2022/04/27 03:19:24;;;;;;;25.60;14.43;;;;;;;-0.33;97.68;102387.69;2054962;28;20657;-65
2022/04/27 03:20:26;;;;;;;27.95;16.42;;;;;;;-0.35;98.18;102389.38;2054706;28;21047;-65
2022/04/27 03:21:29;;;;;;;25.20;14.52;;;;;;;-0.37;98.20;102389.28;2055152;28;20044;-65
2022/04/27 03:22:31;;;;;;;29.92;17.13;;;;;;;-0.36;98.27;102390.19;2070685;28;21378;-66
2022/04/27 03:23:33;;;;;;;24.15;15.63;;;;;;;-0.41;98.05;102379.47;2070357;28;44824;-65
2022/04/27 03:24:35;;;;;;;29.90;15.57;;;;;;;-0.39;98.19;102386.59;2071114;28;20047;-65
2022/04/27 03:25:45;;;;;;;30.80;16.27;;;;;;;-0.42;98.17;102381.16;2062782;28;20043;-65
2022/04/27 03:26:48;;;;;;;32.75;16.98;;;;;;;-0.42;98.13;102386.44;2062507;28;20051;-65
2022/04/27 03:27:52;;;;;;;31.00;16.67;;;;;;;-0.40;97.56;102392.66;2062539;28;20177;-65
2022/04/27 03:28:54;;;;;;;31.00;16.83;;;;;;;-0.40;98.38;102379.50;2062753;28;20169;-65
2022/04/27 03:29:56;;;;;;;34.15;17.33;;;;;;;-0.40;98.32;102387.41;2071677;28;20158;-65
2022/04/27 03:30:57;;;;;;;28.83;15.93;;;;;;;-0.40;98.24;102383.88;2062416;28;20158;-65
2022/04/27 03:32:12;;;;;;;28.52;15.38;;;;;;;-0.43;97.55;102384.66;2064440;28;20963;-66
2022/04/27 03:33:21;;;;;;;27.85;15.77;;;;;;;-0.44;97.72;102387.22;2071126;28;20046;-65
2022/04/27 03:34:25;;;;;;;26.00;14.80;;;;;;;-0.42;98.10;102386.44;2071097;28;20128;-65
2022/04/27 03:35:30;;;;;;;27.13;15.85;;;;;;;-0.46;97.46;102387.13;2062770;28;20132;-65
2022/04/27 03:36:32;;;;;;;24.05;14.90;;;;;;;-0.48;97.72;102388.81;2062508;28;25040;-65
2022/04/27 03:37:34;;;;;;;26.65;15.15;;;;;;;-0.50;98.12;102387.84;2062416;28;20994;-65
2022/04/27 03:38:37;;;;;;;26.33;14.88;;;;;;;-0.52;97.80;102388.56;2070572;28;20050;-65
2022/04/27 03:39:39;;;;;;;22.55;14.43;;;;;;;-0.54;97.57;102390.25;2070623;28;20499;-65
2022/04/27 03:40:52;;;;;;;20.25;13.60;;;;;;;-0.56;97.83;102384.91;2062936;28;20165;-65
2022/04/27 03:41:53;;;;;;;25.83;16.38;;;;;;;-0.59;97.53;102396.19;2061943;28;20206;-65
2022/04/27 03:42:55;;;;;;;25.55;14.40;;;;;;;-0.59;97.46;102387.41;2063502;28;20101;-66
2022/04/27 03:43:57;;;;;;;27.80;15.90;;;;;;;-0.59;97.54;102397.94;2062635;28;20085;-65
2022/04/27 03:44:59;;;;;;;26.92;16.00;;;;;;;-0.59;97.68;102408.47;2070663;28;20050;-65
2022/04/27 03:46:05;;;;;;;23.98;15.52;;;;;;;-0.59;97.56;102397.94;2071484;28;20134;-65
2022/04/27 03:47:11;;;;;;;24.45;15.38;;;;;;;-0.58;97.96;102397.09;2078626;28;20176;-65
2022/04/27 03:48:13;;;;;;;28.48;16.35;;;;;;;-0.57;98.30;102401.53;2070047;28;34572;-65
2022/04/27 03:49:14;;;;;;;30.75;16.85;;;;;;;-0.58;98.36;102394.47;2070669;28;20880;-65
2022/04/27 03:50:17;;;;;;;30.20;16.83;;;;;;;-0.59;98.36;102398.84;2062357;28;20161;-65
2022/04/27 03:51:23;;;;;;;27.80;16.17;;;;;;;-0.58;98.45;102404.97;2063220;28;20958;-65
2022/04/27 03:52:25;;;;;;;30.67;17.80;;;;;;;-0.57;98.06;102396.28;2070597;28;20076;-65
2022/04/27 03:53:27;;;;;;;30.50;17.55;;;;;;;-0.58;98.46;102412.88;2062727;28;20112;-65
2022/04/27 03:54:28;;;;;;;29.10;15.98;;;;;;;-0.58;98.17;102403.25;2054266;28;20168;-65
2022/04/27 03:55:33;;;;;;;28.27;17.17;;;;;;;-0.58;98.61;102404.97;2054685;28;20950;-65
2022/04/27 03:56:35;;;;;;;30.65;17.52;;;;;;;-0.58;98.28;102404.97;2062611;28;20971;-65
2022/04/27 03:57:37;;;;;;;27.55;16.27;;;;;;;-0.59;98.25;102401.47;2063492;28;21133;-65
2022/04/27 03:58:39;;;;;;;29.95;16.27;;;;;;;-0.57;98.47;102412.06;2064148;28;20946;-66
2022/04/27 03:59:44;;;;;;;23.90;14.70;;;;;;;-0.56;98.18;102412.94;2064353;28;20776;-65
2022/04/27 04:00:47;;;;;;;25.23;15.40;;;;;;;-0.61;97.87;102413.66;2056054;28;20050;-65
2022/04/27 04:01:54;;;;;;;25.77;15.48;;;;;;;-0.62;98.28;102406.56;2057091;28;20682;-65
2022/04/27 04:03:01;;;;;;;23.50;14.68;;;;;;;-0.62;98.02;102408.31;2055341;28;41677;-64
2022/04/27 04:04:02;;;;;;;24.02;14.75;;;;;;;-0.63;98.26;102417.94;2056802;28;20035;-65
2022/04/27 04:05:05;;;;;;;24.75;15.25;;;;;;;-0.63;98.03;102412.69;2064783;28;20043;-65
2022/04/27 04:06:08;;;;;;;30.15;16.75;;;;;;;-0.63;97.80;102410.06;2072219;28;20274;-65
2022/04/27 04:07:20;;;;;;;24.35;15.73;;;;;;;-0.58;98.08;102415.50;2064065;28;20042;-65
2022/04/27 04:08:27;;;;;;;32.50;16.60;;;;;;;-0.56;98.57;102410.31;2064971;28;20173;-65
2022/04/27 04:09:32;;;;;;;31.63;17.20;;;;;;;-0.52;98.58;102418.44;2071861;28;20058;-65
2022/04/27 04:10:34;;;;;;;31.33;16.25;;;;;;;-0.47;98.67;102416.00;2063714;28;28225;-65
2022/04/27 04:11:36;;;;;;;27.67;15.02;;;;;;;-0.43;98.91;102418.84;2063536;28;28455;-65
2022/04/27 04:13:03;;;;;;;23.63;14.63;;;;;;;-0.43;98.83;102421.50;2072637;28;20054;-65
2022/04/27 04:14:16;;;;;;;28.50;16.35;;;;;;;-0.43;98.65;102418.84;2064283;28;21074;-64
2022/04/27 04:15:27;;;;;;;30.52;16.80;;;;;;;-0.40;98.85;102420.72;2065031;28;20043;-65
2022/04/27 04:16:47;;;;;;;25.40;15.27;;;;;;;-0.35;98.41;102420.94;2061483;28;20039;-66
2022/04/27 04:18:08;;;;;;;;;;;;;;;-0.34;98.74;102420.09;2067056;28;20072;-65
2022/04/27 04:19:35;;;;;;;26.23;14.27;;;;;;;-0.31;98.41;102426.38;2063794;28;19929;-65
2022/04/27 04:20:54;;;;;;;30.35;16.48;;;;;;;-0.28;98.51;102434.44;2066635;28;20869;-65
2022/04/27 04:22:03;;;;;;;25.35;14.73;;;;;;;-0.24;98.15;102427.56;2063880;28;20094;-65
2022/04/27 04:23:28;;;;;;;22.45;14.65;;;;;;;-0.20;98.49;102426.88;2064002;28;20480;-65
2022/04/27 04:28:29;;;;;;;25.60;14.23;;;;;;;-0.16;98.40;102434.09;2073825;28;20180;-65
2022/04/27 04:28:53;;;;;;;;;;;;;;;0.39;99.05;102422.44;2072241;28;22072;-67
2022/04/27 04:29:55;;;;;;;26.88;14.93;;;;;;;0.67;99.15;102428.88;2063743;28;20906;-66
2022/04/27 04:31:04;;;;;;;28.83;15.77;;;;;;;0.94;99.00;102435.28;2055605;28;20905;-66
2022/04/27 04:32:17;;;;;;;25.58;14.60;;;;;;;1.10;100.00;102431.53;2066052;28;20058;-67
2022/04/27 04:33:47;;;;;;;23.77;13.20;;;;;;;1.26;99.90;102432.16;2067950;28;20837;-66
2022/04/27 04:34:50;;;;;;;22.55;13.55;;;;;;;1.33;99.25;102426.28;2063901;28;20043;-67
2022/04/27 04:35:52;;;;;;;19.45;13.10;;;;;;;1.42;99.22;102431.91;2072372;28;20169;-66
2022/04/27 04:36:54;;;;;;;18.60;13.02;;;;;;;1.64;99.54;102427.44;2071794;28;20241;-66
2022/04/27 04:37:56;;;;;;;19.25;13.07;;;;;;;1.99;99.07;102427.84;2063196;28;42714;-67
2022/04/27 04:39:00;;;;;;;27.33;16.02;;;;;;;2.38;99.35;102428.34;2056188;28;20158;-66
2022/04/27 04:40:06;;;;;;;27.67;16.23;;;;;;;2.86;99.97;102429.97;2056329;28;20086;-67
2022/04/27 04:41:07;;;;;;;22.95;14.80;;;;;;;3.33;99.66;102429.69;2055588;28;31644;-68
2022/04/27 04:42:17;;;;;;;21.17;14.10;;;;;;;3.87;99.67;102428.63;2064140;28;20125;-68
2022/04/27 04:43:19;;;;;;;21.52;14.38;;;;;;;4.34;98.73;102426.38;2071576;28;30950;-68
2022/04/27 04:44:21;;;;;;;18.98;13.10;;;;;;;4.76;98.29;102423.97;2063470;28;20124;-68
2022/04/27 04:45:59;;;;;;;17.65;11.82;;;;;;;5.05;94.45;102425.53;2051870;28;20055;-68
2022/04/27 04:47:20;;;;;;;15.73;10.57;;;;;;;5.12;91.69;102425.72;2055557;28;20047;-68
2022/04/27 04:48:47;;;;;;;13.13;8.05;;;;;;;5.25;93.78;102424.22;2069707;28;20059;-68
2022/04/27 04:50:09;;;;;;;13.50;9.73;;;;;;;5.18;92.94;102430.25;2072406;28;20038;-69
2022/04/27 04:51:38;;;;;;;13.75;9.10;;;;;;;4.93;90.71;102437.63;2063807;28;20059;-69
2022/04/27 04:52:59;;;;;;;11.57;8.45;;;;;;;4.91;90.93;102436.69;2066391;28;21007;-69
2022/04/27 04:54:28;;;;;;;16.33;8.73;;;;;;;4.85;91.72;102440.97;2071783;28;20057;-69
2022/04/27 04:55:47;;;;;;;14.82;9.02;;;;;;;4.76;91.69;102442.53;2071982;28;20047;-68
2022/04/27 04:57:24;;;;;;;12.25;9.35;;;;;;;4.61;90.32;102444.78;2069059;28;20764;-68
2022/04/27 04:58:44;;;;;;;14.88;9.70;;;;;;;4.48;90.47;102440.91;2071911;28;20059;-69
2022/04/27 05:00:08;;;;;;;9.85;8.40;;;;;;;4.45;91.41;102443.50;2072763;28;21026;-68
2022/04/27 05:01:29;;;;;;;11.93;8.35;;;;;;;4.35;90.32;102460.03;2071698;28;20189;-69
2022/04/27 05:02:50;;;;;;;13.93;9.95;;;;;;;4.26;89.41;102460.66;2072978;28;20083;-68
2022/04/27 05:04:15;;;;;;;10.43;8.23;;;;;;;4.31;91.71;102453.72;2071915;28;20038;-68
2022/04/27 05:05:41;;;;;;;13.07;9.50;;;;;;;4.27;91.11;102456.25;2038667;29;20126;-68
2022/04/27 05:07:09;;;;;;;9.70;8.35;;;;;;;4.28;90.04;102460.72;2055730;28;20992;-69
2022/04/27 05:08:23;;;;;;;9.68;7.38;;;;;;;4.26;91.14;102468.63;2063259;28;20047;-68
2022/04/27 05:09:40;;;;;;;12.57;9.43;;;;;;;4.30;91.46;102461.63;2065196;28;20050;-68
2022/04/27 05:11:00;;;;;;;12.35;10.02;;;;;;;4.20;89.45;102469.34;2072514;28;20145;-69
2022/04/27 05:12:19;;;;;;;13.52;9.50;;;;;;;4.23;89.19;102467.63;2071187;28;20169;-69